createdAt,value
2023-05-10T00:00:16.138Z,99680.34
2023-05-10T00:02:45.137Z,99680.34
2023-05-10T00:05:12.971Z,99680.25
2023-05-10T00:07:45.627Z,99689.69
2023-05-10T00:10:14.145Z,99685.34
2023-05-10T00:12:42.228Z,99699.09
2023-05-10T00:15:10.949Z,99694.72
2023-05-10T00:17:38.902Z,99699.09
2023-05-10T00:20:07.758Z,99694.72
2023-05-10T00:22:35.743Z,99699.91
2023-05-10T00:25:05.485Z,99694.78
2023-05-10T00:27:33.292Z,99692.19
2023-05-10T00:30:01.213Z,99691.38
2023-05-10T00:32:29.093Z,99689.69
2023-05-10T00:34:57.394Z,99694.88
2023-05-10T00:37:25.211Z,99693.13
2023-05-10T00:39:53.086Z,99693.97
2023-05-10T00:42:22.350Z,99698.25
2023-05-10T00:44:50.672Z,99696.50
2023-05-10T00:47:18.789Z,99687.00
2023-05-10T00:49:47.707Z,99690.47
2023-05-10T00:52:16.202Z,99697.38
2023-05-10T00:54:44.164Z,99684.50
2023-05-10T00:57:12.686Z,99684.50
2023-05-10T00:59:41.825Z,99676.00
2023-05-10T01:02:09.642Z,99671.75
2023-05-10T01:04:38.125Z,99676.09
2023-05-10T01:07:06.016Z,99666.63
2023-05-10T01:09:34.843Z,99667.47
2023-05-10T01:12:04.482Z,99660.63
2023-05-10T01:14:32.434Z,99660.69
2023-05-10T01:17:02.285Z,99649.56
2023-05-10T01:19:32.380Z,99642.81
2023-05-10T01:22:08.003Z,99647.16
2023-05-10T01:25:01.710Z,99638.56
2023-05-10T01:27:57.602Z,99632.59
2023-05-10T01:31:00.139Z,99633.53
2023-05-10T01:33:33.895Z,99626.69
2023-05-10T01:36:05.191Z,99629.25
2023-05-10T01:38:43.863Z,99626.69
2023-05-10T01:41:18.514Z,99628.34
2023-05-10T01:43:55.817Z,99634.34
2023-05-10T01:46:29.579Z,99632.59
2023-05-10T01:49:02.537Z,99634.28
2023-05-10T01:51:40.939Z,99635.19
2023-05-10T01:54:11.732Z,99625.75
2023-05-10T01:56:42.490Z,99623.25
2023-05-10T01:59:15.002Z,99623.44
2023-05-10T02:01:44.981Z,99610.63
2023-05-10T02:04:18.675Z,99584.06
2023-05-10T02:06:48.948Z,99576.44
2023-05-10T02:09:17.756Z,99563.69
2023-05-10T02:11:46.187Z,99553.41
2023-05-10T02:14:15.164Z,99549.22
2023-05-10T02:16:44.240Z,99544.03
2023-05-10T02:19:14.235Z,99544.91
2023-05-10T02:21:43.560Z,99535.50
2023-05-10T02:24:13.418Z,99542.41
2023-05-10T02:26:42.611Z,99544.09
2023-05-10T02:29:13.219Z,99538.91
2023-05-10T02:31:44.441Z,99542.34
2023-05-10T02:34:14.964Z,99544.09
2023-05-10T02:36:44.422Z,99545.78
2023-05-10T02:39:14.502Z,99544.91
2023-05-10T02:41:43.080Z,99538.16
2023-05-10T02:44:12.206Z,99528.72
2023-05-10T02:46:40.182Z,99521.09
2023-05-10T02:49:08.996Z,99512.59
2023-05-10T02:51:42.952Z,99510.94
2023-05-10T02:54:14.516Z,99498.13
2023-05-10T02:56:49.085Z,99484.53
2023-05-10T02:59:16.937Z,99471.78
2023-05-10T03:01:44.970Z,99457.22
2023-05-10T03:04:14.243Z,99451.31
2023-05-10T03:06:43.909Z,99440.28
2023-05-10T03:09:16.141Z,99436.09
2023-05-10T03:11:52.464Z,99423.25
2023-05-10T03:14:36.736Z,99412.22
2023-05-10T03:17:12.287Z,99402.06
2023-05-10T03:19:50.748Z,99380.75
2023-05-10T03:22:26.518Z,99362.00
2023-05-10T03:24:57.599Z,99341.63
2023-05-10T03:27:28.945Z,99315.34
2023-05-10T03:29:58.568Z,99294.06
2023-05-10T03:32:28.088Z,99280.50
2023-05-10T03:34:56.025Z,99264.28
2023-05-10T03:37:26.408Z,99248.19
2023-05-10T03:39:54.340Z,99232.13
2023-05-10T03:42:22.212Z,99219.34
2023-05-10T03:44:50.438Z,99197.34
2023-05-10T03:47:18.802Z,99171.00
2023-05-10T03:49:47.127Z,99143.84
2023-05-10T03:52:15.112Z,99120.84
2023-05-10T03:54:44.309Z,99103.91
2023-05-10T03:57:12.064Z,99091.28
2023-05-10T03:59:39.852Z,99072.59
2023-05-10T04:02:08.207Z,99042.84
2023-05-10T04:04:37.617Z,99025.09
2023-05-10T04:07:05.492Z,99018.25
2023-05-10T04:09:33.604Z,99014.94
2023-05-10T04:12:03.309Z,99014.94
2023-05-10T04:14:31.105Z,99019.34
2023-05-10T04:16:58.962Z,99007.25
2023-05-10T04:19:30.722Z,99007.25
2023-05-10T04:21:58.656Z,99015.81
2023-05-10T04:24:26.587Z,99019.34
2023-05-10T04:26:57.669Z,99014.16
2023-05-10T04:29:27.618Z,99017.59
2023-05-10T04:31:55.461Z,99032.09
2023-05-10T04:34:23.402Z,99040.59
2023-05-10T04:36:51.180Z,99044.91
2023-05-10T04:39:19.086Z,99052.66
2023-05-10T04:41:46.889Z,99056.09
2023-05-10T04:44:14.691Z,99061.19
2023-05-10T04:46:43.952Z,99060.41
2023-05-10T04:49:11.805Z,99069.00
2023-05-10T04:51:39.650Z,99082.59
2023-05-10T04:54:07.432Z,99095.38
2023-05-10T04:56:35.292Z,99109.84
2023-05-10T04:59:03.598Z,99117.50
2023-05-10T05:01:31.520Z,99141.34
2023-05-10T05:04:00.854Z,99148.19
2023-05-10T05:06:28.680Z,99161.88
2023-05-10T05:08:56.488Z,99179.78
2023-05-10T05:11:24.302Z,99184.78
2023-05-10T05:13:52.073Z,99199.38
2023-05-10T05:16:19.928Z,99207.06
2023-05-10T05:18:47.867Z,99207.06
2023-05-10T05:21:17.925Z,99223.41
2023-05-10T05:23:45.845Z,99227.72
2023-05-10T05:26:13.698Z,99241.31
2023-05-10T05:28:41.517Z,99247.31
2023-05-10T05:31:10.188Z,99251.66
2023-05-10T05:33:38.684Z,99258.47
2023-05-10T05:36:07.701Z,99264.44
2023-05-10T05:38:36.920Z,99274.66
2023-05-10T05:41:04.720Z,99290.84
2023-05-10T05:43:32.509Z,99307.03
2023-05-10T05:46:00.353Z,99318.13
2023-05-10T05:48:28.355Z,99334.38
2023-05-10T05:50:59.708Z,99341.25
2023-05-10T05:53:27.564Z,99361.75
2023-05-10T05:55:58.197Z,99370.25
2023-05-10T05:58:26.327Z,99379.63
2023-05-10T06:00:54.332Z,99402.63
2023-05-10T06:03:22.334Z,99414.59
2023-05-10T06:05:50.302Z,99424.94
2023-05-10T06:08:18.239Z,99432.59
2023-05-10T06:10:46.421Z,99452.28
2023-05-10T06:13:15.732Z,99462.47
2023-05-10T06:15:43.551Z,99477.81
2023-05-10T06:18:11.348Z,99501.72
2023-05-10T06:20:39.126Z,99517.06
2023-05-10T06:23:06.971Z,99534.16
2023-05-10T06:25:34.825Z,99546.03
2023-05-10T06:28:02.967Z,99559.81
2023-05-10T06:30:32.129Z,99587.22
2023-05-10T06:33:00.309Z,99598.31
2023-05-10T06:35:28.224Z,99611.06
2023-05-10T06:37:56.372Z,99634.06
2023-05-10T06:40:24.192Z,99646.88
2023-05-10T06:42:52.282Z,99676.84
2023-05-10T06:45:20.222Z,99701.50
2023-05-10T06:47:49.674Z,99738.34
2023-05-10T06:50:17.579Z,99759.59
2023-05-10T06:52:45.431Z,99778.47
2023-05-10T06:55:13.522Z,99782.72
2023-05-10T06:57:41.360Z,99775.13
2023-05-10T07:00:10.699Z,99777.72
2023-05-10T07:02:38.676Z,99790.59
2023-05-10T07:05:08.737Z,99788.91
2023-05-10T07:07:36.640Z,99798.28
2023-05-10T07:10:04.679Z,99779.53
2023-05-10T07:12:32.788Z,99755.78
2023-05-10T07:15:00.658Z,99766.03
2023-05-10T07:17:28.573Z,99784.88
2023-05-10T07:19:56.492Z,99773.81
2023-05-10T07:22:25.732Z,99781.44
2023-05-10T07:24:53.615Z,99803.75
2023-05-10T07:27:21.507Z,99808.84
2023-05-10T07:29:49.545Z,99808.00
2023-05-10T07:32:17.406Z,99830.19
2023-05-10T07:34:45.300Z,99827.75
2023-05-10T07:37:13.321Z,99844.88
2023-05-10T07:39:42.459Z,99872.22
2023-05-10T07:42:10.362Z,99837.94
2023-05-10T07:44:38.183Z,99844.03
2023-05-10T07:47:06.181Z,99873.91
2023-05-10T07:49:33.971Z,99879.09
2023-05-10T07:52:01.717Z,99896.13
2023-05-10T07:54:29.509Z,99923.53
2023-05-10T07:56:58.642Z,99946.72
2023-05-10T07:59:26.450Z,99952.56
2023-05-10T08:01:54.239Z,99947.53
2023-05-10T08:04:22.187Z,99956.06
2023-05-10T08:06:50.007Z,99978.34
2023-05-10T08:09:18.795Z,99983.53
2023-05-10T08:11:46.607Z,99988.63
2023-05-10T08:14:15.776Z,99986.03
2023-05-10T08:16:43.533Z,100001.41
2023-05-10T08:19:11.471Z,100039.81
2023-05-10T08:21:39.274Z,100080.88
2023-05-10T08:24:07.690Z,100090.31
2023-05-10T08:26:35.835Z,100118.47
2023-05-10T08:29:03.822Z,100159.50
2023-05-10T08:31:32.982Z,100194.59
2023-05-10T08:34:01.268Z,100218.56
2023-05-10T08:36:29.297Z,100211.75
2023-05-10T08:38:57.069Z,100239.91
2023-05-10T08:41:26.519Z,100299.00
2023-05-10T08:43:55.102Z,100304.13
2023-05-10T08:46:24.490Z,100340.88
2023-05-10T08:48:55.632Z,100334.00
2023-05-10T08:51:27.678Z,100340.88
2023-05-10T08:53:56.207Z,100376.84
2023-05-10T08:56:25.051Z,100393.16
2023-05-10T08:58:53.232Z,100462.47
2023-05-10T09:01:22.297Z,100484.75
2023-05-10T09:03:52.850Z,100531.84
2023-05-10T09:06:27.436Z,100596.91
2023-05-10T09:08:55.443Z,100642.31
2023-05-10T09:11:23.458Z,100635.44
2023-05-10T09:13:52.988Z,100616.69
2023-05-10T09:16:22.325Z,100603.84
2023-05-10T09:18:51.283Z,100618.44
2023-05-10T09:21:21.704Z,100692.94
2023-05-10T09:23:51.027Z,100767.50
2023-05-10T09:26:19.174Z,100826.63
2023-05-10T09:28:53.781Z,100827.53
2023-05-10T09:31:22.089Z,100815.56
2023-05-10T09:33:51.690Z,100742.69
2023-05-10T09:36:20.910Z,100722.09
2023-05-10T09:38:49.879Z,100695.50
2023-05-10T09:41:19.088Z,100695.53
2023-05-10T09:43:46.895Z,100663.00
2023-05-10T09:46:14.895Z,100668.94
2023-05-10T09:48:45.410Z,100668.94
2023-05-10T09:51:20.431Z,100699.78
2023-05-10T09:53:51.503Z,100755.50
2023-05-10T09:56:38.569Z,100814.69
2023-05-10T09:59:07.324Z,100860.91
2023-05-10T10:01:35.912Z,100886.66
2023-05-10T10:04:05.964Z,100892.69
2023-05-10T10:06:38.837Z,100928.69
2023-05-10T10:09:09.422Z,100987.97
2023-05-10T10:11:38.189Z,101047.22
2023-05-10T10:14:09.000Z,101091.03
2023-05-10T10:16:37.603Z,101144.28
2023-05-10T10:19:09.949Z,101198.41
2023-05-10T10:21:37.754Z,101208.75
2023-05-10T10:24:06.748Z,101231.84
2023-05-10T10:26:39.257Z,101249.13
2023-05-10T10:29:12.602Z,101250.75
2023-05-10T10:31:47.190Z,101234.44
2023-05-10T10:34:27.238Z,101180.31
2023-05-10T10:36:57.207Z,101179.47
2023-05-10T10:39:26.491Z,101171.66
2023-05-10T10:41:57.174Z,101179.47
2023-05-10T10:44:36.486Z,101212.06
2023-05-10T10:47:25.640Z,101232.75
2023-05-10T10:50:04.755Z,101231.78
2023-05-10T10:52:35.116Z,101206.88
2023-05-10T10:55:06.222Z,101184.53
2023-05-10T10:57:45.520Z,101123.47
2023-05-10T11:00:28.561Z,101073.66
2023-05-10T11:02:59.835Z,101047.97
2023-05-10T11:05:37.082Z,101008.34
2023-05-10T11:08:14.254Z,100994.69
2023-05-10T11:10:52.871Z,100969.69
2023-05-10T11:13:31.312Z,100959.38
2023-05-10T11:15:59.987Z,100941.41
2023-05-10T11:18:29.483Z,100948.25
2023-05-10T11:21:03.629Z,100963.66
2023-05-10T11:23:32.570Z,100963.59
2023-05-10T11:26:01.338Z,101011.66
2023-05-10T11:28:30.932Z,101028.84
2023-05-10T11:30:59.427Z,101091.59
2023-05-10T11:33:27.309Z,101147.34
2023-05-10T11:35:55.156Z,101208.41
2023-05-10T11:38:22.936Z,101274.56
2023-05-10T11:40:54.302Z,101358.88
2023-05-10T11:43:29.114Z,101457.78
2023-05-10T11:45:58.578Z,101509.56
2023-05-10T11:48:26.409Z,101549.00
2023-05-10T11:50:57.933Z,101587.84
2023-05-10T11:53:28.282Z,101628.38
2023-05-10T11:55:56.104Z,101671.41
2023-05-10T11:58:24.363Z,101740.31
2023-05-10T12:00:52.357Z,101786.94
2023-05-10T12:03:21.872Z,101836.91
2023-05-10T12:05:49.813Z,101886.91
2023-05-10T12:08:21.855Z,101940.38
2023-05-10T12:10:49.707Z,102010.31
2023-05-10T12:13:17.581Z,102030.09
2023-05-10T12:15:45.744Z,102013.69
2023-05-10T12:18:14.572Z,102001.63
2023-05-10T12:20:43.930Z,101975.66
2023-05-10T12:23:12.001Z,101974.78
2023-05-10T12:25:40.757Z,101967.00
2023-05-10T12:28:10.511Z,101954.91
2023-05-10T12:30:39.187Z,101943.69
2023-05-10T12:33:10.940Z,101904.81
2023-05-10T12:35:51.088Z,101934.16
2023-05-10T12:38:31.872Z,101985.97
2023-05-10T12:41:02.049Z,102046.31
2023-05-10T12:43:30.310Z,102102.44
2023-05-10T12:45:58.553Z,102086.91
2023-05-10T12:48:26.934Z,102005.66
2023-05-10T12:50:56.136Z,101985.81
2023-05-10T12:53:23.903Z,101997.03
2023-05-10T12:55:51.718Z,102036.72
2023-05-10T12:58:34.445Z,102040.19
2023-05-10T13:01:05.171Z,102060.81
2023-05-10T13:03:33.168Z,102066.84
2023-05-10T13:06:02.443Z,102028.81
2023-05-10T13:08:34.151Z,101980.50
2023-05-10T13:11:02.243Z,101965.81
2023-05-10T13:13:30.233Z,101965.75
2023-05-10T13:15:58.144Z,101987.38
2023-05-10T13:18:27.381Z,102001.13
2023-05-10T13:20:56.701Z,102065.88
2023-05-10T13:23:25.962Z,102141.03
2023-05-10T13:25:53.816Z,102276.66
2023-05-10T13:28:21.611Z,102409.84
2023-05-10T13:30:49.479Z,102544.06
2023-05-10T13:33:17.323Z,102655.78
2023-05-10T13:35:46.086Z,102686.03
2023-05-10T13:38:14.729Z,102743.31
2023-05-10T13:40:44.123Z,102712.03
2023-05-10T13:43:12.158Z,102684.28
2023-05-10T13:45:40.041Z,102585.47
2023-05-10T13:48:07.999Z,102504.94
2023-05-10T13:50:35.930Z,102365.53
2023-05-10T13:53:03.766Z,102306.72
2023-05-10T13:55:31.885Z,102255.63
2023-05-10T13:58:01.131Z,102247.91
2023-05-10T14:00:29.145Z,102213.28
2023-05-10T14:02:57.125Z,102189.88
2023-05-10T14:05:26.190Z,102172.50
2023-05-10T14:07:54.800Z,102157.84
2023-05-10T14:10:22.751Z,102156.09
2023-05-10T14:12:51.330Z,102125.84
2023-05-10T14:15:20.574Z,102130.09
2023-05-10T14:17:48.859Z,102171.56
2023-05-10T14:20:17.095Z,102189.69
2023-05-10T14:22:44.884Z,102220.78
2023-05-10T14:25:12.824Z,102234.59
2023-05-10T14:27:40.720Z,102167.19
2023-05-10T14:30:09.792Z,102065.16
2023-05-10T14:32:39.140Z,101966.72
2023-05-10T14:35:09.029Z,101831.19
2023-05-10T14:37:38.656Z,101747.53
2023-05-10T14:40:08.217Z,101646.66
2023-05-10T14:42:36.221Z,101561.31
2023-05-10T14:45:04.326Z,101463.22
2023-05-10T14:47:32.286Z,101425.31
2023-05-10T14:50:01.419Z,101383.94
2023-05-10T14:52:29.287Z,101328.03
2023-05-10T14:54:58.084Z,101235.13
2023-05-10T14:57:25.858Z,101125.03
2023-05-10T14:59:53.795Z,101059.84
2023-05-10T15:02:22.480Z,101015.19
2023-05-10T15:04:50.676Z,100940.41
2023-05-10T15:07:20.178Z,100903.63
2023-05-10T15:09:48.041Z,100872.66
2023-05-10T15:12:15.871Z,100868.38
2023-05-10T15:14:43.668Z,100873.50
2023-05-10T15:17:12.167Z,100870.13
2023-05-10T15:19:39.974Z,100848.69
2023-05-10T15:22:07.848Z,100849.50
2023-05-10T15:24:36.981Z,100855.44
2023-05-10T15:27:04.916Z,100877.78
2023-05-10T15:29:33.409Z,100892.41
2023-05-10T15:32:03.207Z,100909.59
2023-05-10T15:34:32.564Z,100912.13
2023-05-10T15:37:01.707Z,100935.34
2023-05-10T15:39:29.521Z,100936.19
2023-05-10T15:41:58.706Z,100945.59
2023-05-10T15:44:26.575Z,100945.59
2023-05-10T15:46:54.435Z,100968.75
2023-05-10T15:49:22.303Z,100973.03
2023-05-10T15:51:50.115Z,100958.41
2023-05-10T15:54:17.948Z,100985.13
2023-05-10T15:56:45.721Z,100998.81
2023-05-10T15:59:14.868Z,100996.28
2023-05-10T16:01:42.808Z,100948.13
2023-05-10T16:04:10.666Z,100936.94
2023-05-10T16:06:38.890Z,100905.22
2023-05-10T16:09:06.759Z,100901.78
2023-05-10T16:11:34.687Z,100916.41
2023-05-10T16:14:02.495Z,100924.09
2023-05-10T16:16:32.143Z,100937.03
2023-05-10T16:19:01.361Z,100934.34
2023-05-10T16:21:29.585Z,100928.44
2023-05-10T16:23:57.410Z,100915.47
2023-05-10T16:26:25.253Z,100913.78
2023-05-10T16:28:53.407Z,100895.81
2023-05-10T16:31:21.256Z,100887.19
2023-05-10T16:33:50.847Z,100878.63
2023-05-10T16:36:18.650Z,100867.47
2023-05-10T16:38:46.452Z,100866.63
2023-05-10T16:41:14.219Z,100853.69
2023-05-10T16:43:42.069Z,100836.50
2023-05-10T16:46:12.973Z,100808.25
2023-05-10T16:48:40.813Z,100794.56
2023-05-10T16:51:10.197Z,100796.28
2023-05-10T16:53:38.096Z,100751.66
2023-05-10T16:56:06.163Z,100726.72
2023-05-10T16:58:34.804Z,100688.09
2023-05-10T17:01:02.805Z,100686.47
2023-05-10T17:03:30.725Z,100686.47
2023-05-10T17:05:59.032Z,100697.66
2023-05-10T17:08:28.222Z,100701.88
2023-05-10T17:10:56.280Z,100711.38
2023-05-10T17:13:24.096Z,100701.88
2023-05-10T17:15:52.047Z,100707.00
2023-05-10T17:18:20.345Z,100719.84
2023-05-10T17:20:48.517Z,100737.94
2023-05-10T17:23:16.841Z,100729.28
2023-05-10T17:25:46.051Z,100732.78
2023-05-10T17:28:13.930Z,100729.34
2023-05-10T17:30:41.705Z,100730.16
2023-05-10T17:33:09.625Z,100727.56
2023-05-10T17:35:37.679Z,100718.16
2023-05-10T17:38:05.512Z,100704.41
2023-05-10T17:40:33.367Z,100704.47
2023-05-10T17:43:03.001Z,100701.03
2023-05-10T17:45:31.050Z,100680.38
2023-05-10T17:47:58.920Z,100677.91
2023-05-10T17:50:26.798Z,100677.91
2023-05-10T17:52:54.675Z,100659.00
2023-05-10T17:55:22.497Z,100629.09
2023-05-10T17:57:51.936Z,100596.50
2023-05-10T18:00:21.872Z,100567.34
2023-05-10T18:02:49.764Z,100544.25
2023-05-10T18:05:18.047Z,100522.84
2023-05-10T18:07:46.143Z,100493.81
2023-05-10T18:10:14.036Z,100445.78
2023-05-10T18:12:41.936Z,100408.09
2023-05-10T18:15:10.401Z,100378.22
2023-05-10T18:17:39.664Z,100350.03
2023-05-10T18:20:08.718Z,100356.91
2023-05-10T18:22:36.730Z,100338.03
2023-05-10T18:25:04.972Z,100321.00
2023-05-10T18:27:33.184Z,100295.25
2023-05-10T18:30:00.968Z,100289.41
2023-05-10T18:32:28.952Z,100245.66
2023-05-10T18:34:58.647Z,100226.06
2023-05-10T18:37:26.529Z,100206.34
2023-05-10T18:39:54.547Z,100196.97
2023-05-10T18:42:22.346Z,100172.16
2023-05-10T18:44:50.399Z,100153.47
2023-05-10T18:47:18.285Z,100144.09
2023-05-10T18:49:46.242Z,100138.13
2023-05-10T18:52:16.106Z,100124.41
2023-05-10T18:54:44.011Z,100111.63
2023-05-10T18:57:12.386Z,100103.03
2023-05-10T18:59:40.538Z,100098.84
2023-05-10T19:02:09.137Z,100078.31
2023-05-10T19:04:37.276Z,100062.16
2023-05-10T19:07:05.431Z,100061.31
2023-05-10T19:09:34.715Z,100057.09
2023-05-10T19:12:02.569Z,100040.88
2023-05-10T19:14:30.469Z,100036.53
2023-05-10T19:16:58.279Z,100039.19
2023-05-10T19:19:26.219Z,100021.19
2023-05-10T19:21:55.685Z,100024.69
2023-05-10T19:24:25.577Z,100019.50
2023-05-10T19:26:56.201Z,100012.72
2023-05-10T19:29:24.232Z,100005.94
2023-05-10T19:31:53.020Z,100009.44
2023-05-10T19:34:21.220Z,99992.28
2023-05-10T19:36:49.391Z,99987.28
2023-05-10T19:39:17.415Z,99976.13
2023-05-10T19:41:45.322Z,99970.94
2023-05-10T19:44:14.965Z,99967.59
2023-05-10T19:46:42.907Z,99949.66
2023-05-10T19:49:10.837Z,99936.88
2023-05-10T19:51:38.797Z,99931.78
2023-05-10T19:54:07.206Z,99916.44
2023-05-10T19:56:35.469Z,99908.00
2023-05-10T19:59:03.959Z,99889.16
2023-05-10T20:01:33.221Z,99879.88
2023-05-10T20:04:01.290Z,99877.34
2023-05-10T20:06:29.206Z,99876.47
2023-05-10T20:08:57.013Z,99874.75
2023-05-10T20:11:25.008Z,99874.00
2023-05-10T20:13:52.968Z,99869.75
2023-05-10T20:16:20.833Z,99858.63
2023-05-10T20:18:50.706Z,99853.59
2023-05-10T20:21:19.756Z,99833.16
2023-05-10T20:23:47.595Z,99811.75
2023-05-10T20:26:15.417Z,99793.84
2023-05-10T20:28:43.343Z,99794.75
2023-05-10T20:31:11.701Z,99798.19
2023-05-10T20:33:39.611Z,99805.03
2023-05-10T20:36:10.057Z,99798.19
2023-05-10T20:38:37.962Z,99788.91
2023-05-10T20:41:05.873Z,99782.94
2023-05-10T20:43:33.763Z,99787.25
2023-05-10T20:46:05.446Z,99785.50
2023-05-10T20:48:34.069Z,99793.25
2023-05-10T20:51:03.123Z,99796.69
2023-05-10T20:53:32.701Z,99805.28
2023-05-10T20:56:00.542Z,99804.28
2023-05-10T20:58:28.427Z,99807.78
2023-05-10T21:00:56.247Z,99807.03
2023-05-10T21:03:24.110Z,99799.41
2023-05-10T21:05:51.984Z,99799.41
2023-05-10T21:08:19.932Z,99791.72
2023-05-10T21:10:49.166Z,99785.78
2023-05-10T21:13:17.312Z,99781.59
2023-05-10T21:15:45.223Z,99772.97
2023-05-10T21:18:13.044Z,99773.06
2023-05-10T21:20:41.046Z,99763.63
2023-05-10T21:23:08.880Z,99756.03
2023-05-10T21:25:37.600Z,99746.63
2023-05-10T21:28:06.895Z,99740.72
2023-05-10T21:30:34.828Z,99726.25
2023-05-10T21:33:03.709Z,99716.06
2023-05-10T21:35:31.735Z,99716.97
2023-05-10T21:37:59.603Z,99704.94
2023-05-10T21:40:27.387Z,99698.16
2023-05-10T21:42:55.371Z,99696.47
2023-05-10T21:45:24.878Z,99693.97
2023-05-10T21:47:52.829Z,99690.63
2023-05-10T21:50:21.068Z,99682.03
2023-05-10T21:52:48.935Z,99683.84
2023-05-10T21:55:17.534Z,99683.94
2023-05-10T21:57:45.671Z,99671.91
2023-05-10T22:00:16.334Z,99672.81
2023-05-10T22:06:36.334Z,99671.25
2023-05-10T22:09:05.070Z,99667.81
2023-05-10T22:11:32.914Z,99666.13
2023-05-10T22:14:00.744Z,99661.03
2023-05-10T22:16:28.867Z,99659.34
2023-05-10T22:18:56.791Z,99645.75
2023-05-10T22:21:24.651Z,99650.06
2023-05-10T22:23:54.117Z,99649.22
2023-05-10T22:26:22.116Z,99634.63
2023-05-10T22:28:49.934Z,99633.97
2023-05-10T22:31:17.837Z,99619.41
2023-05-10T22:33:45.655Z,99610.06
2023-05-10T22:36:15.120Z,99600.72
2023-05-10T22:38:43.018Z,99588.84
2023-05-10T22:41:12.254Z,99581.09
2023-05-10T22:43:40.157Z,99579.41
2023-05-10T22:46:08.010Z,99576.06
2023-05-10T22:48:36.707Z,99575.31
2023-05-10T22:51:04.695Z,99578.75
2023-05-10T22:53:32.591Z,99565.03
2023-05-10T22:56:00.532Z,99571.97
2023-05-10T22:58:29.774Z,99572.88
2023-05-10T23:00:57.645Z,99564.28
2023-05-10T23:03:25.927Z,99564.38
2023-05-10T23:05:53.720Z,99566.94
2023-05-10T23:08:22.355Z,99564.38
2023-05-10T23:10:50.172Z,99565.28
2023-05-10T23:13:18.756Z,99558.44
2023-05-10T23:15:48.238Z,99567.09
2023-05-10T23:18:16.163Z,99556.75
2023-05-10T23:20:44.300Z,99555.09
2023-05-10T23:23:12.236Z,99561.91
2023-05-10T23:25:40.083Z,99557.66
2023-05-10T23:28:07.946Z,99547.50
2023-05-10T23:30:35.744Z,99545.00
2023-05-10T23:33:05.034Z,99533.88
2023-05-10T23:35:32.879Z,99533.88
2023-05-10T23:38:00.733Z,99536.53
2023-05-10T23:40:28.835Z,99533.94
2023-05-10T23:42:56.735Z,99540.78
2023-05-10T23:45:24.612Z,99540.78
2023-05-10T23:47:52.735Z,99549.38
2023-05-10T23:50:22.069Z,99554.50
2023-05-10T23:52:49.937Z,99548.47
2023-05-10T23:55:17.953Z,99548.53
2023-05-10T23:57:46.034Z,99536.63
